sensor_id;sensor_type;location;lat;lon;timestamp;pressure;altitude;pressure_sealevel;temperature;humidity
27304;BME280;14791;52.392;13.092;2022-11-20T00:01:42;100748.67;;;6.09;51.14
27304;BME280;14791;52.392;13.092;2022-11-20T00:04:11;100746.48;;;6.09;51.00
27304;BME280;14791;52.392;13.092;2022-11-20T00:06:40;100743.50;;;6.06;50.95
27304;BME280;14791;52.392;13.092;2022-11-20T00:09:10;100746.68;;;6.04;50.96
27304;BME280;14791;52.392;13.092;2022-11-20T00:11:39;100741.05;;;6.02;50.96
27304;BME280;14791;52.392;13.092;2022-11-20T00:14:09;100741.09;;;6.00;50.97
27304;BME280;14791;52.392;13.092;2022-11-20T00:16:38;100743.84;;;5.99;50.99
27304;BME280;14791;52.392;13.092;2022-11-20T00:19:07;100739.50;;;5.96;50.99
27304;BME280;14791;52.392;13.092;2022-11-20T00:21:36;100744.41;;;5.95;50.99
27304;BME280;14791;52.392;13.092;2022-11-20T00:24:05;100740.92;;;5.93;51.00
27304;BME280;14791;52.392;13.092;2022-11-20T00:26:34;100742.34;;;5.91;51.00
27304;BME280;14791;52.392;13.092;2022-11-20T00:29:04;100738.88;;;5.89;50.98
27304;BME280;14791;52.392;13.092;2022-11-20T00:31:35;100740.27;;;5.88;50.94
27304;BME280;14791;52.392;13.092;2022-11-20T00:34:04;100739.88;;;5.87;50.97
27304;BME280;14791;52.392;13.092;2022-11-20T00:36:34;100734.30;;;5.83;50.98
27304;BME280;14791;52.392;13.092;2022-11-20T00:39:03;100738.80;;;5.81;50.99
27304;BME280;14791;52.392;13.092;2022-11-20T00:41:32;100736.67;;;5.79;51.04
27304;BME280;14791;52.392;13.092;2022-11-20T00:44:01;100739.32;;;5.79;51.00
27304;BME280;14791;52.392;13.092;2022-11-20T00:46:30;100734.54;;;5.76;51.00
27304;BME280;14791;52.392;13.092;2022-11-20T00:48:59;100741.16;;;5.76;51.00
27304;BME280;14791;52.392;13.092;2022-11-20T00:51:28;100744.76;;;5.75;50.95
27304;BME280;14791;52.392;13.092;2022-11-20T00:53:58;100744.34;;;5.74;50.99
27304;BME280;14791;52.392;13.092;2022-11-20T00:56:28;100747.55;;;5.72;50.96
27304;BME280;14791;52.392;13.092;2022-11-20T00:58:59;100749.39;;;5.70;51.02
27304;BME280;14791;52.392;13.092;2022-11-20T01:01:30;100749.44;;;5.69;51.07
27304;BME280;14791;52.392;13.092;2022-11-20T01:04:00;100748.17;;;5.67;51.11
27304;BME280;14791;52.392;13.092;2022-11-20T01:06:31;100746.84;;;5.67;51.12
27304;BME280;14791;52.392;13.092;2022-11-20T01:09:03;100738.89;;;5.67;51.07
27304;BME280;14791;52.392;13.092;2022-11-20T01:11:34;100741.96;;;5.68;51.11
27304;BME280;14791;52.392;13.092;2022-11-20T01:14:06;100744.19;;;5.67;51.06
27304;BME280;14791;52.392;13.092;2022-11-20T01:16:37;100742.87;;;5.67;51.03
27304;BME280;14791;52.392;13.092;2022-11-20T01:19:10;100740.22;;;5.67;50.99
27304;BME280;14791;52.392;13.092;2022-11-20T01:21:40;100731.87;;;5.66;50.99
27304;BME280;14791;52.392;13.092;2022-11-20T01:24:12;100730.69;;;5.63;50.93
27304;BME280;14791;52.392;13.092;2022-11-20T01:26:42;100737.31;;;5.63;50.94
27304;BME280;14791;52.392;13.092;2022-11-20T01:29:20;100726.38;;;5.61;50.93
27304;BME280;14791;52.392;13.092;2022-11-20T01:31:44;100729.47;;;5.60;50.94
27304;BME280;14791;52.392;13.092;2022-11-20T01:34:16;100729.55;;;5.59;50.95
27304;BME280;14791;52.392;13.092;2022-11-20T01:36:45;100722.70;;;5.53;50.92
27304;BME280;14791;52.392;13.092;2022-11-20T01:39:19;100732.25;;;5.57;50.89
27304;BME280;14791;52.392;13.092;2022-11-20T01:41:49;100730.55;;;5.56;50.93
27304;BME280;14791;52.392;13.092;2022-11-20T01:44:56;100734.09;;;5.55;50.93
27304;BME280;14791;52.392;13.092;2022-11-20T01:47:38;100735.95;;;5.53;50.94
27304;BME280;14791;52.392;13.092;2022-11-20T01:50:13;100733.43;;;5.50;50.94
27304;BME280;14791;52.392;13.092;2022-11-20T01:52:48;100734.28;;;5.50;50.91
27304;BME280;14791;52.392;13.092;2022-11-20T01:55:31;100728.13;;;5.50;50.90
27304;BME280;14791;52.392;13.092;2022-11-20T01:57:55;100726.42;;;5.49;50.88
27304;BME280;14791;52.392;13.092;2022-11-20T02:00:24;100724.67;;;5.48;50.83
27304;BME280;14791;52.392;13.092;2022-11-20T02:03:02;100716.73;;;5.48;50.82
27304;BME280;14791;52.392;13.092;2022-11-20T02:08:07;100712.03;;;5.44;50.85
27304;BME280;14791;52.392;13.092;2022-11-20T02:10:36;100713.41;;;5.43;50.87
27304;BME280;14791;52.392;13.092;2022-11-20T02:13:05;100710.77;;;5.43;50.89
27304;BME280;14791;52.392;13.092;2022-11-20T02:15:52;100714.73;;;5.43;50.85
27304;BME280;14791;52.392;13.092;2022-11-20T02:18:22;100710.42;;;5.40;50.84
27304;BME280;14791;52.392;13.092;2022-11-20T02:20:54;100708.71;;;5.39;50.83
27304;BME280;14791;52.392;13.092;2022-11-20T02:23:35;100702.61;;;5.37;50.80
27304;BME280;14791;52.392;13.092;2022-11-20T02:26:06;100701.34;;;5.36;50.82
27304;BME280;14791;52.392;13.092;2022-11-20T02:28:35;100703.18;;;5.33;50.88
27304;BME280;14791;52.392;13.092;2022-11-20T02:31:04;100700.66;;;5.30;50.86
27304;BME280;14791;52.392;13.092;2022-11-20T02:33:33;100704.69;;;5.29;50.83
27304;BME280;14791;52.392;13.092;2022-11-20T02:36:02;100704.35;;;5.26;50.92
27304;BME280;14791;52.392;13.092;2022-11-20T02:38:31;100699.99;;;5.25;50.98
27304;BME280;14791;52.392;13.092;2022-11-20T02:41:00;100701.78;;;5.25;51.05
27304;BME280;14791;52.392;13.092;2022-11-20T02:43:28;100698.66;;;5.25;51.03
27304;BME280;14791;52.392;13.092;2022-11-20T02:45:57;100692.52;;;5.25;51.02
27304;BME280;14791;52.392;13.092;2022-11-20T02:48:26;100689.40;;;5.25;51.03
27304;BME280;14791;52.392;13.092;2022-11-20T02:50:55;100693.38;;;5.25;51.02
27304;BME280;14791;52.392;13.092;2022-11-20T02:53:24;100699.94;;;5.27;50.97
27304;BME280;14791;52.392;13.092;2022-11-20T02:55:53;100692.00;;;5.27;50.99
27304;BME280;14791;52.392;13.092;2022-11-20T02:58:22;100692.85;;;5.27;51.03
27304;BME280;14791;52.392;13.092;2022-11-20T03:00:52;100694.98;;;5.29;51.01
27304;BME280;14791;52.392;13.092;2022-11-20T03:03:21;100689.69;;;5.29;51.06
27304;BME280;14791;52.392;13.092;2022-11-20T03:05:50;100685.63;;;5.31;51.15
27304;BME280;14791;52.392;13.092;2022-11-20T03:08:19;100688.61;;;5.33;51.19
27304;BME280;14791;52.392;13.092;2022-11-20T03:10:48;100686.30;;;5.36;51.14
27304;BME280;14791;52.392;13.092;2022-11-20T03:13:17;100687.52;;;5.39;51.09
27304;BME280;14791;52.392;13.092;2022-11-20T03:15:45;100682.61;;;5.40;51.03
27304;BME280;14791;52.392;13.092;2022-11-20T03:18:14;100676.84;;;5.41;51.04
27304;BME280;14791;52.392;13.092;2022-11-20T03:20:43;100668.38;;;5.43;51.01
27304;BME280;14791;52.392;13.092;2022-11-20T03:23:12;100673.62;;;5.44;50.99
27304;BME280;14791;52.392;13.092;2022-11-20T03:25:41;100671.83;;;5.45;50.97
27304;BME280;14791;52.392;13.092;2022-11-20T03:28:10;100669.56;;;5.46;50.95
27304;BME280;14791;52.392;13.092;2022-11-20T03:30:39;100667.33;;;5.47;50.95
27304;BME280;14791;52.392;13.092;2022-11-20T03:33:08;100665.06;;;5.48;50.99
27304;BME280;14791;52.392;13.092;2022-11-20T03:35:36;100664.16;;;5.49;51.01
27304;BME280;14791;52.392;13.092;2022-11-20T03:38:05;100662.36;;;5.49;51.01
27304;BME280;14791;52.392;13.092;2022-11-20T03:40:34;100668.52;;;5.50;51.02
27304;BME280;14791;52.392;13.092;2022-11-20T03:43:03;100667.66;;;5.49;51.09
27304;BME280;14791;52.392;13.092;2022-11-20T03:45:32;100666.34;;;5.49;51.18
27304;BME280;14791;52.392;13.092;2022-11-20T03:48:01;100662.31;;;5.51;51.21
27304;BME280;14791;52.392;13.092;2022-11-20T03:50:30;100660.05;;;5.52;51.29
27304;BME280;14791;52.392;13.092;2022-11-20T03:52:59;100660.00;;;5.53;51.29
27304;BME280;14791;52.392;13.092;2022-11-20T03:55:27;100660.33;;;5.56;51.30
27304;BME280;14791;52.392;13.092;2022-11-20T03:57:56;100663.78;;;5.58;51.32
27304;BME280;14791;52.392;13.092;2022-11-20T04:00:25;100657.02;;;5.61;51.30
27304;BME280;14791;52.392;13.092;2022-11-20T04:02:58;100657.82;;;5.63;51.29
27304;BME280;14791;52.392;13.092;2022-11-20T04:05:27;100656.83;;;5.66;51.28
27304;BME280;14791;52.392;13.092;2022-11-20T04:07:57;100655.41;;;5.67;51.31
27304;BME280;14791;52.392;13.092;2022-11-20T04:10:26;100666.43;;;5.68;51.38
27304;BME280;14791;52.392;13.092;2022-11-20T04:12:54;100660.98;;;5.71;51.46
27304;BME280;14791;52.392;13.092;2022-11-20T04:15:23;100657.30;;;5.75;51.53
27304;BME280;14791;52.392;13.092;2022-11-20T04:17:53;100662.78;;;5.81;51.47
27304;BME280;14791;52.392;13.092;2022-11-20T04:20:22;100656.38;;;5.87;51.38
27304;BME280;14791;52.392;13.092;2022-11-20T04:22:53;100653.58;;;5.90;51.31
27304;BME280;14791;52.392;13.092;2022-11-20T04:25:22;100657.77;;;5.95;51.23
27304;BME280;14791;52.392;13.092;2022-11-20T04:27:51;100658.52;;;5.99;51.26
27304;BME280;14791;52.392;13.092;2022-11-20T04:30:20;100658.38;;;6.02;51.25
27304;BME280;14791;52.392;13.092;2022-11-20T04:32:48;100658.23;;;6.05;51.17
27304;BME280;14791;52.392;13.092;2022-11-20T04:35:17;100661.16;;;6.09;51.14
27304;BME280;14791;52.392;13.092;2022-11-20T04:37:46;100668.97;;;6.12;51.08
27304;BME280;14791;52.392;13.092;2022-11-20T04:40:15;100667.11;;;6.14;50.98
27304;BME280;14791;52.392;13.092;2022-11-20T04:42:44;100666.20;;;6.15;50.90
27304;BME280;14791;52.392;13.092;2022-11-20T04:45:13;100665.73;;;6.16;50.89
27304;BME280;14791;52.392;13.092;2022-11-20T04:47:42;100666.20;;;6.15;50.87
27304;BME280;14791;52.392;13.092;2022-11-20T04:50:11;100662.22;;;6.15;50.88
27304;BME280;14791;52.392;13.092;2022-11-20T04:55:28;100660.42;;;6.16;50.90
27304;BME280;14791;52.392;13.092;2022-11-20T04:57:57;100658.95;;;6.19;50.91
27304;BME280;14791;52.392;13.092;2022-11-20T05:00:26;100658.01;;;6.20;50.95
27304;BME280;14791;52.392;13.092;2022-11-20T05:02:55;100652.59;;;6.23;50.92
27304;BME280;14791;52.392;13.092;2022-11-20T05:05:24;100650.27;;;6.26;50.88
27304;BME280;14791;52.392;13.092;2022-11-20T05:07:55;100645.34;;;6.27;50.81
27304;BME280;14791;52.392;13.092;2022-11-20T05:10:25;100646.19;;;6.27;50.82
27304;BME280;14791;52.392;13.092;2022-11-20T05:12:54;100629.84;;;6.28;50.82
27304;BME280;14791;52.392;13.092;2022-11-20T05:15:22;100631.55;;;6.29;50.78
27304;BME280;14791;52.392;13.092;2022-11-20T05:17:52;100632.41;;;6.29;50.80
27304;BME280;14791;52.392;13.092;2022-11-20T05:20:21;100625.33;;;6.30;50.79
27304;BME280;14791;52.392;13.092;2022-11-20T05:22:50;100627.56;;;6.29;50.82
27304;BME280;14791;52.392;13.092;2022-11-20T05:25:19;100623.59;;;6.29;50.81
27304;BME280;14791;52.392;13.092;2022-11-20T05:27:47;100628.89;;;6.29;50.82
27304;BME280;14791;52.392;13.092;2022-11-20T05:30:16;100626.30;;;6.27;50.87
27304;BME280;14791;52.392;13.092;2022-11-20T05:32:45;100625.86;;;6.28;50.93
27304;BME280;14791;52.392;13.092;2022-11-20T05:35:14;100630.22;;;6.29;50.88
27304;BME280;14791;52.392;13.092;2022-11-20T05:37:43;100627.56;;;6.29;50.94
27304;BME280;14791;52.392;13.092;2022-11-20T05:40:12;100625.71;;;6.31;50.93
27304;BME280;14791;52.392;13.092;2022-11-20T05:42:41;100622.11;;;6.32;50.90
27304;BME280;14791;52.392;13.092;2022-11-20T05:45:11;100617.60;;;6.34;50.89
27304;BME280;14791;52.392;13.092;2022-11-20T05:47:40;100622.00;;;6.35;50.82
27304;BME280;14791;52.392;13.092;2022-11-20T05:50:09;100618.39;;;6.36;50.76
27304;BME280;14791;52.392;13.092;2022-11-20T05:52:38;100617.07;;;6.36;50.74
27304;BME280;14791;52.392;13.092;2022-11-20T05:55:07;100617.48;;;6.37;50.67
27304;BME280;14791;52.392;13.092;2022-11-20T05:57:36;100617.55;;;6.35;50.64
27304;BME280;14791;52.392;13.092;2022-11-20T06:00:06;100611.91;;;6.33;50.66
27304;BME280;14791;52.392;13.092;2022-11-20T06:02:35;100614.16;;;6.32;50.65
27304;BME280;14791;52.392;13.092;2022-11-20T06:05:05;100616.05;;;6.30;50.62
27304;BME280;14791;52.392;13.092;2022-11-20T06:07:34;100610.86;;;6.27;50.74
27304;BME280;14791;52.392;13.092;2022-11-20T06:10:03;100610.06;;;6.25;50.81
27304;BME280;14791;52.392;13.092;2022-11-20T06:12:32;100608.30;;;6.25;50.83
27304;BME280;14791;52.392;13.092;2022-11-20T06:15:01;100604.75;;;6.25;50.75
27304;BME280;14791;52.392;13.092;2022-11-20T06:17:30;100602.66;;;6.23;50.79
27304;BME280;14791;52.392;13.092;2022-11-20T06:19:59;100607.55;;;6.22;50.84
27304;BME280;14791;52.392;13.092;2022-11-20T06:22:28;100609.68;;;6.24;50.84
27304;BME280;14791;52.392;13.092;2022-11-20T06:24:57;100601.72;;;6.24;50.85
27304;BME280;14791;52.392;13.092;2022-11-20T06:27:26;100604.38;;;6.24;50.89
27304;BME280;14791;52.392;13.092;2022-11-20T06:29:55;100606.08;;;6.25;50.84
27304;BME280;14791;52.392;13.092;2022-11-20T06:32:24;100604.31;;;6.25;50.84
27304;BME280;14791;52.392;13.092;2022-11-20T06:34:53;100603.42;;;6.25;50.78
27304;BME280;14791;52.392;13.092;2022-11-20T06:37:22;100609.15;;;6.26;50.72
27304;BME280;14791;52.392;13.092;2022-11-20T06:39:51;100606.08;;;6.25;50.67
27304;BME280;14791;52.392;13.092;2022-11-20T06:42:19;100608.36;;;6.24;50.59
27304;BME280;14791;52.392;13.092;2022-11-20T06:44:49;100605.85;;;6.21;50.52
27304;BME280;14791;52.392;13.092;2022-11-20T06:47:17;100605.91;;;6.19;50.46
27304;BME280;14791;52.392;13.092;2022-11-20T06:49:46;100598.16;;;6.14;50.48
27304;BME280;14791;52.392;13.092;2022-11-20T06:52:15;100601.34;;;6.12;50.51
27304;BME280;14791;52.392;13.092;2022-11-20T06:54:44;100598.84;;;6.09;50.50
27304;BME280;14791;52.392;13.092;2022-11-20T06:57:13;100613.56;;;6.06;50.48
27304;BME280;14791;52.392;13.092;2022-11-20T06:59:42;100611.03;;;6.03;50.49
27304;BME280;14791;52.392;13.092;2022-11-20T07:02:11;100608.94;;;6.01;50.46
27304;BME280;14791;52.392;13.092;2022-11-20T07:04:40;100607.20;;;6.00;50.47
27304;BME280;14791;52.392;13.092;2022-11-20T07:07:09;100608.20;;;5.98;50.53
27304;BME280;14791;52.392;13.092;2022-11-20T07:09:38;100612.59;;;5.99;50.47
27304;BME280;14791;52.392;13.092;2022-11-20T07:12:07;100613.97;;;5.97;50.47
27304;BME280;14791;52.392;13.092;2022-11-20T07:14:36;100616.21;;;5.96;50.44
27304;BME280;14791;52.392;13.092;2022-11-20T07:17:05;100617.16;;;5.95;50.44
27304;BME280;14791;52.392;13.092;2022-11-20T07:19:34;100621.16;;;5.93;50.48
27304;BME280;14791;52.392;13.092;2022-11-20T07:22:03;100606.66;;;5.92;50.55
27304;BME280;14791;52.392;13.092;2022-11-20T07:24:31;100606.55;;;5.95;50.67
27304;BME280;14791;52.392;13.092;2022-11-20T07:27:00;100605.16;;;5.96;50.77
27304;BME280;14791;52.392;13.092;2022-11-20T07:29:29;100600.57;;;6.00;50.76
27304;BME280;14791;52.392;13.092;2022-11-20T07:31:58;100603.48;;;6.04;50.75
27304;BME280;14791;52.392;13.092;2022-11-20T07:34:27;100597.13;;;6.08;50.84
27304;BME280;14791;52.392;13.092;2022-11-20T07:36:56;100599.48;;;6.14;50.88
27304;BME280;14791;52.392;13.092;2022-11-20T07:39:25;100595.23;;;6.21;50.86
27304;BME280;14791;52.392;13.092;2022-11-20T07:41:54;100600.72;;;6.26;50.81
27304;BME280;14791;52.392;13.092;2022-11-20T07:44:22;100603.55;;;6.32;50.64
27304;BME280;14791;52.392;13.092;2022-11-20T07:46:53;100604.22;;;6.37;50.46
27304;BME280;14791;52.392;13.092;2022-11-20T07:49:22;100600.23;;;6.37;50.32
27304;BME280;14791;52.392;13.092;2022-11-20T07:51:51;100603.75;;;6.37;50.21
27304;BME280;14791;52.392;13.092;2022-11-20T07:54:22;100592.34;;;6.35;50.12
27304;BME280;14791;52.392;13.092;2022-11-20T07:56:51;100592.02;;;6.33;50.09
27304;BME280;14791;52.392;13.092;2022-11-20T07:59:20;100589.52;;;6.30;50.04
27304;BME280;14791;52.392;13.092;2022-11-20T08:01:49;100588.78;;;6.26;50.07
27304;BME280;14791;52.392;13.092;2022-11-20T08:04:18;100585.42;;;6.23;50.09
27304;BME280;14791;52.392;13.092;2022-11-20T08:06:47;100579.77;;;6.20;50.13
27304;BME280;14791;52.392;13.092;2022-11-20T08:09:16;100582.09;;;6.17;50.26
27304;BME280;14791;52.392;13.092;2022-11-20T08:11:45;100583.42;;;6.17;50.34
27304;BME280;14791;52.392;13.092;2022-11-20T08:14:31;100582.89;;;6.20;50.36
27304;BME280;14791;52.392;13.092;2022-11-20T08:17:00;100578.91;;;6.20;50.45
27304;BME280;14791;52.392;13.092;2022-11-20T08:19:29;100573.61;;;6.20;50.48
27304;BME280;14791;52.392;13.092;2022-11-20T08:21:58;100575.58;;;6.25;50.46
27304;BME280;14791;52.392;13.092;2022-11-20T08:24:26;100573.72;;;6.27;50.36
27304;BME280;14791;52.392;13.092;2022-11-20T08:26:58;100572.81;;;6.28;50.30
27304;BME280;14791;52.392;13.092;2022-11-20T08:29:27;100575.37;;;6.29;50.33
27304;BME280;14791;52.392;13.092;2022-11-20T08:31:56;100581.94;;;6.31;50.32
27304;BME280;14791;52.392;13.092;2022-11-20T08:34:25;100582.73;;;6.33;50.30
27304;BME280;14791;52.392;13.092;2022-11-20T08:36:54;100582.20;;;6.35;50.36
27304;BME280;14791;52.392;13.092;2022-11-20T08:39:23;100579.02;;;6.37;50.31
27304;BME280;14791;52.392;13.092;2022-11-20T08:41:51;100581.89;;;6.41;50.30
27304;BME280;14791;52.392;13.092;2022-11-20T08:44:20;100580.03;;;6.43;50.27
27304;BME280;14791;52.392;13.092;2022-11-20T08:46:49;100583.80;;;6.48;50.31
27304;BME280;14791;52.392;13.092;2022-11-20T08:49:18;100594.20;;;6.52;50.28
27304;BME280;14791;52.392;13.092;2022-11-20T08:51:47;100588.27;;;6.56;50.23
27304;BME280;14791;52.392;13.092;2022-11-20T08:54:17;100577.44;;;6.60;50.21
27304;BME280;14791;52.392;13.092;2022-11-20T08:56:48;100582.09;;;6.66;50.13
27304;BME280;14791;52.392;13.092;2022-11-20T08:59:17;100585.50;;;6.68;50.03
27304;BME280;14791;52.392;13.092;2022-11-20T09:01:46;100576.63;;;6.69;50.04
27304;BME280;14791;52.392;13.092;2022-11-20T09:04:15;100591.06;;;6.72;50.00
27304;BME280;14791;52.392;13.092;2022-11-20T09:06:44;100590.53;;;6.74;49.93
27304;BME280;14791;52.392;13.092;2022-11-20T09:09:13;100582.95;;;6.75;49.94
27304;BME280;14791;52.392;13.092;2022-11-20T09:11:42;100583.73;;;6.77;49.93
27304;BME280;14791;52.392;13.092;2022-11-20T09:14:10;100586.33;;;6.78;49.86
27304;BME280;14791;52.392;13.092;2022-11-20T09:16:39;100582.83;;;6.78;49.75
27304;BME280;14791;52.392;13.092;2022-11-20T09:19:08;100584.21;;;6.76;49.77
27304;BME280;14791;52.392;13.092;2022-11-20T09:21:37;100586.48;;;6.75;49.89
27304;BME280;14791;52.392;13.092;2022-11-20T09:24:08;100582.95;;;6.75;49.87
27304;BME280;14791;52.392;13.092;2022-11-20T09:26:37;100587.34;;;6.76;49.83
27304;BME280;14791;52.392;13.092;2022-11-20T09:29:05;100585.54;;;6.76;49.85
27304;BME280;14791;52.392;13.092;2022-11-20T09:31:34;100592.65;;;6.76;49.72
27304;BME280;14791;52.392;13.092;2022-11-20T09:34:04;100584.84;;;6.73;49.69
27304;BME280;14791;52.392;13.092;2022-11-20T09:36:33;100584.43;;;6.72;49.58
27304;BME280;14791;52.392;13.092;2022-11-20T09:39:02;100582.41;;;6.68;49.55
27304;BME280;14791;52.392;13.092;2022-11-20T09:55:31;100565.55;;;6.50;50.19
27304;BME280;14791;52.392;13.092;2022-11-20T09:58:00;100564.28;;;6.49;50.25
27304;BME280;14791;52.392;13.092;2022-11-20T10:00:29;100569.00;;;6.52;50.21
27304;BME280;14791;52.392;13.092;2022-11-20T10:03:10;100566.28;;;6.54;50.15
27304;BME280;14791;52.392;13.092;2022-11-20T10:05:39;100565.27;;;6.56;50.05
27304;BME280;14791;52.392;13.092;2022-11-20T10:08:16;100561.83;;;6.54;49.96
27304;BME280;14791;52.392;13.092;2022-11-20T10:10:48;100562.30;;;6.54;50.03
27304;BME280;14791;52.392;13.092;2022-11-20T10:18:36;100553.29;;;6.48;49.96
27304;BME280;14791;52.392;13.092;2022-11-20T10:29:43;100547.72;;;6.35;49.93
27304;BME280;14791;52.392;13.092;2022-11-20T10:32:19;100551.27;;;6.25;49.95
27304;BME280;14791;52.392;13.092;2022-11-20T10:35:44;100549.20;;;6.22;49.92
27304;BME280;14791;52.392;13.092;2022-11-20T10:37:34;100556.14;;;6.15;49.96
27304;BME280;14791;52.392;13.092;2022-11-20T10:40:45;100540.02;;;6.10;50.04
27304;BME280;14791;52.392;13.092;2022-11-20T10:43:14;100539.70;;;6.07;50.16
27304;BME280;14791;52.392;13.092;2022-11-20T10:45:55;100532.58;;;5.99;50.48
27304;BME280;14791;52.392;13.092;2022-11-20T10:48:29;100538.67;;;6.01;50.62
27304;BME280;14791;52.392;13.092;2022-11-20T10:56:35;100534.57;;;6.13;50.74
27304;BME280;14791;52.392;13.092;2022-11-20T11:01:43;100531.70;;;6.17;50.74
27304;BME280;14791;52.392;13.092;2022-11-20T11:04:23;100522.30;;;6.21;50.80
27304;BME280;14791;52.392;13.092;2022-11-20T11:06:48;100518.43;;;6.28;50.86
27304;BME280;14791;52.392;13.092;2022-11-20T11:09:26;100516.73;;;6.35;50.96
27304;BME280;14791;52.392;13.092;2022-11-20T11:11:52;100521.52;;;6.46;51.08
27304;BME280;14791;52.392;13.092;2022-11-20T11:14:21;100515.39;;;6.54;51.07
27304;BME280;14791;52.392;13.092;2022-11-20T11:16:58;100520.09;;;6.67;51.04
27304;BME280;14791;52.392;13.092;2022-11-20T11:19:24;100519.55;;;6.77;51.06
27304;BME280;14791;52.392;13.092;2022-11-20T11:21:55;100520.30;;;6.90;50.98
27304;BME280;14791;52.392;13.092;2022-11-20T11:24:29;100514.81;;;7.01;50.82
27304;BME280;14791;52.392;13.092;2022-11-20T11:27:04;100510.38;;;7.11;50.57
27304;BME280;14791;52.392;13.092;2022-11-20T11:29:34;100508.67;;;7.18;50.58
27304;BME280;14791;52.392;13.092;2022-11-20T11:34:35;100503.03;;;7.33;50.42
27304;BME280;14791;52.392;13.092;2022-11-20T11:37:05;100504.03;;;7.39;50.19
27304;BME280;14791;52.392;13.092;2022-11-20T11:39:35;100501.23;;;7.42;50.05
27304;BME280;14791;52.392;13.092;2022-11-20T11:42:07;100498.58;;;7.42;49.84
27304;BME280;14791;52.392;13.092;2022-11-20T11:44:36;100488.49;;;7.40;49.87
27304;BME280;14791;52.392;13.092;2022-11-20T11:47:26;100509.75;;;7.40;49.79
27304;BME280;14791;52.392;13.092;2022-11-20T11:55:18;100496.53;;;7.30;49.98
27304;BME280;14791;52.392;13.092;2022-11-20T12:00:20;100492.55;;;7.30;49.95
27304;BME280;14791;52.392;13.092;2022-11-20T12:06:00;100493.33;;;7.32;49.95
27304;BME280;14791;52.392;13.092;2022-11-20T12:11:13;100494.99;;;7.26;50.18
27304;BME280;14791;52.392;13.092;2022-11-20T12:16:40;100484.37;;;7.26;50.18
27304;BME280;14791;52.392;13.092;2022-11-20T12:19:13;100488.66;;;7.20;50.25
27304;BME280;14791;52.392;13.092;2022-11-20T12:30:20;100485.14;;;6.93;50.46
27304;BME280;14791;52.392;13.092;2022-11-20T12:32:59;100486.55;;;6.83;50.70
27304;BME280;14791;52.392;13.092;2022-11-20T12:41:34;100478.80;;;6.70;51.01
27304;BME280;14791;52.392;13.092;2022-11-20T12:52:41;100473.25;;;6.57;51.69
27304;BME280;14791;52.392;13.092;2022-11-20T12:58:10;100476.53;;;6.62;51.70
27304;BME280;14791;52.392;13.092;2022-11-20T13:00:39;100473.33;;;6.64;51.79
27304;BME280;14791;52.392;13.092;2022-11-20T13:03:42;100463.82;;;6.69;51.75
27304;BME280;14791;52.392;13.092;2022-11-20T13:06:16;100456.86;;;6.75;51.77
27304;BME280;14791;52.392;13.092;2022-11-20T13:08:53;100454.14;;;6.76;51.68
27304;BME280;14791;52.392;13.092;2022-11-20T13:11:39;100451.31;;;6.79;51.66
27304;BME280;14791;52.392;13.092;2022-11-20T13:17:05;100449.63;;;6.87;51.62
27304;BME280;14791;52.392;13.092;2022-11-20T13:19:33;100438.84;;;6.90;51.53
27304;BME280;14791;52.392;13.092;2022-11-20T13:22:02;100441.50;;;6.90;51.60
27304;BME280;14791;52.392;13.092;2022-11-20T13:24:32;100438.13;;;6.95;51.61
27304;BME280;14791;52.392;13.092;2022-11-20T13:29:42;100429.53;;;7.08;51.51
27304;BME280;14791;52.392;13.092;2022-11-20T13:32:16;100424.05;;;7.11;51.42
27304;BME280;14791;52.392;13.092;2022-11-20T13:34:56;100425.62;;;7.15;51.44
27304;BME280;14791;52.392;13.092;2022-11-20T13:37:29;100423.20;;;7.19;51.42
27304;BME280;14791;52.392;13.092;2022-11-20T13:40:12;100419.52;;;7.21;51.26
27304;BME280;14791;52.392;13.092;2022-11-20T13:45:25;100414.10;;;7.23;51.08
27304;BME280;14791;52.392;13.092;2022-11-20T13:47:55;100421.70;;;7.22;51.03
27304;BME280;14791;52.392;13.092;2022-11-20T13:50:40;100420.92;;;7.20;51.16
27304;BME280;14791;52.392;13.092;2022-11-20T13:56:09;100426.95;;;7.23;51.31
27304;BME280;14791;52.392;13.092;2022-11-20T13:59:13;100418.50;;;7.24;51.35
27304;BME280;14791;52.392;13.092;2022-11-20T14:01:39;100421.94;;;7.26;51.42
27304;BME280;14791;52.392;13.092;2022-11-20T14:04:14;100419.34;;;7.24;51.38
27304;BME280;14791;52.392;13.092;2022-11-20T14:06:44;100419.95;;;7.30;51.25
27304;BME280;14791;52.392;13.092;2022-11-20T14:09:26;100426.05;;;7.32;51.16
27304;BME280;14791;52.392;13.092;2022-11-20T14:11:55;100422.48;;;7.33;51.14
27304;BME280;14791;52.392;13.092;2022-11-20T14:14:26;100433.95;;;7.33;51.14
27304;BME280;14791;52.392;13.092;2022-11-20T14:17:17;100431.05;;;7.38;51.20
27304;BME280;14791;52.392;13.092;2022-11-20T14:19:41;100429.48;;;7.42;51.23
27304;BME280;14791;52.392;13.092;2022-11-20T14:22:23;100425.50;;;7.42;51.22
27304;BME280;14791;52.392;13.092;2022-11-20T14:27:46;100427.20;;;7.43;50.94
27304;BME280;14791;52.392;13.092;2022-11-20T14:30:17;100433.23;;;7.38;50.86
27304;BME280;14791;52.392;13.092;2022-11-20T14:32:47;100427.21;;;7.35;50.73
27304;BME280;14791;52.392;13.092;2022-11-20T14:35:34;100426.53;;;7.31;50.69
27304;BME280;14791;52.392;13.092;2022-11-20T14:37:58;100423.27;;;7.26;50.56
27304;BME280;14791;52.392;13.092;2022-11-20T14:42:59;100423.20;;;7.10;50.48
27304;BME280;14791;52.392;13.092;2022-11-20T14:45:28;100432.83;;;7.04;50.61
27304;BME280;14791;52.392;13.092;2022-11-20T14:47:58;100434.77;;;7.00;50.76
27304;BME280;14791;52.392;13.092;2022-11-20T14:50:29;100429.52;;;6.99;50.85
27304;BME280;14791;52.392;13.092;2022-11-20T14:53:02;100424.69;;;6.98;50.83